createdAt,value
2023-03-17T00:01:24.195Z,100583.31
2023-03-17T00:03:52.100Z,100629.56
2023-03-17T00:06:28.717Z,100604.88
2023-03-17T00:08:57.711Z,100619.19
2023-03-17T00:11:27.628Z,100624.66
2023-03-17T00:14:01.562Z,100624.94
2023-03-17T00:16:32.840Z,100578.13
2023-03-17T00:19:00.743Z,100621.91
2023-03-17T00:21:30.861Z,100597.09
2023-03-17T00:23:59.723Z,100593.88
2023-03-17T00:26:28.662Z,100621.47
2023-03-17T00:28:56.674Z,100623.06
2023-03-17T00:31:26.285Z,100606.28
2023-03-17T00:33:55.196Z,100626.91
2023-03-17T00:36:34.607Z,100583.16
2023-03-17T00:41:40.959Z,100472.44
2023-03-17T00:44:09.272Z,100637.81
2023-03-17T00:46:38.935Z,100608.00
2023-03-17T00:51:45.132Z,100637.25
2023-03-17T00:54:15.742Z,100618.06
2023-03-17T00:56:44.926Z,100632.41
2023-03-17T00:59:24.410Z,100611.00
2023-03-17T01:01:53.910Z,100621.06
2023-03-17T01:04:22.852Z,100619.06
2023-03-17T01:06:52.291Z,100617.44
2023-03-17T01:09:24.255Z,100624.78
2023-03-17T01:11:52.084Z,100620.97
2023-03-17T01:14:20.340Z,100614.50
2023-03-17T01:16:48.767Z,100614.72
2023-03-17T01:19:17.623Z,100616.31
2023-03-17T01:21:46.927Z,100613.91
2023-03-17T01:24:18.187Z,100610.16
2023-03-17T01:26:46.030Z,100616.41
2023-03-17T01:29:14.747Z,100605.34
2023-03-17T01:31:42.687Z,100578.31
2023-03-17T01:34:13.033Z,100587.88
2023-03-17T01:36:41.528Z,100609.34
2023-03-17T01:39:09.491Z,100533.06
2023-03-17T01:41:37.780Z,100599.56
2023-03-17T01:44:07.873Z,100602.63
2023-03-17T01:46:36.997Z,100599.09
2023-03-17T01:49:09.790Z,100592.25
2023-03-17T01:51:43.075Z,100595.78
2023-03-17T01:54:36.139Z,100589.81
2023-03-17T01:57:15.314Z,100604.75
2023-03-17T02:00:08.924Z,100596.88
2023-03-17T02:02:46.164Z,100562.03
2023-03-17T02:05:18.047Z,100601.53
2023-03-17T02:07:46.508Z,100559.38
2023-03-17T02:10:18.312Z,100598.81
2023-03-17T02:12:51.134Z,100583.31
2023-03-17T02:15:19.798Z,100592.75
2023-03-17T02:17:47.824Z,100553.94
2023-03-17T02:20:19.037Z,100595.78
2023-03-17T02:22:55.113Z,100592.03
2023-03-17T02:25:25.835Z,100576.03
2023-03-17T02:28:00.311Z,100573.38
2023-03-17T02:30:29.401Z,100577.66
2023-03-17T02:32:57.536Z,100523.63
2023-03-17T02:35:25.261Z,100576.84
2023-03-17T02:37:53.915Z,100576.25
2023-03-17T02:40:22.147Z,100579.28
2023-03-17T02:42:51.586Z,100576.03
2023-03-17T02:45:19.403Z,100512.22
2023-03-17T02:47:49.455Z,100535.44
2023-03-17T02:50:23.671Z,100577.66
2023-03-17T02:52:52.167Z,100570.91
2023-03-17T02:55:20.625Z,100500.66
2023-03-17T02:57:48.770Z,100540.59
2023-03-17T03:00:16.885Z,100521.97
2023-03-17T03:02:44.681Z,100562.47
2023-03-17T03:05:12.793Z,100535.97
2023-03-17T03:07:40.666Z,100539.78
2023-03-17T03:10:09.496Z,100507.31
2023-03-17T03:12:37.567Z,100528.63
2023-03-17T03:15:08.844Z,100548.13
2023-03-17T03:17:36.755Z,100527.88
2023-03-17T03:20:06.168Z,100534.59
2023-03-17T03:22:33.843Z,100510.22
2023-03-17T03:25:01.858Z,100538.28
2023-03-17T03:27:30.193Z,100519.06
2023-03-17T03:29:59.069Z,100537.69
2023-03-17T03:32:28.076Z,100531.22
2023-03-17T03:34:57.122Z,100519.91
2023-03-17T03:37:25.133Z,100456.97
2023-03-17T03:39:53.432Z,100542.91
2023-03-17T03:42:21.233Z,100526.13
2023-03-17T03:44:49.137Z,100542.09
2023-03-17T03:47:16.934Z,100506.22
2023-03-17T03:49:44.744Z,100507.31
2023-03-17T03:52:12.518Z,100497.59
2023-03-17T03:54:40.625Z,100517.13
2023-03-17T03:57:08.703Z,100547.03
2023-03-17T03:59:36.739Z,100541.88
2023-03-17T04:02:04.938Z,100505.97
2023-03-17T04:04:33.212Z,100494.88
2023-03-17T04:07:01.648Z,100521.31
2023-03-17T04:09:29.606Z,100523.00
2023-03-17T04:11:57.446Z,100502.66
2023-03-17T04:14:25.354Z,100528.63
2023-03-17T04:16:53.106Z,100437.81
2023-03-17T04:19:22.016Z,100535.97
2023-03-17T04:21:50.139Z,100533.19
2023-03-17T04:24:18.198Z,100477.59
2023-03-17T04:26:46.026Z,100546.75
2023-03-17T04:29:15.918Z,100479.72
2023-03-17T04:31:45.220Z,100546.19
2023-03-17T04:34:18.960Z,100331.84
2023-03-17T04:36:48.075Z,100561.00
2023-03-17T04:39:17.725Z,100539.84
2023-03-17T04:41:46.637Z,100554.16
2023-03-17T04:44:16.228Z,100521.50
2023-03-17T04:46:44.041Z,100550.09
2023-03-17T04:49:12.119Z,100532.84
2023-03-17T04:51:41.347Z,100486.09
2023-03-17T04:54:09.393Z,100555.91
2023-03-17T04:56:37.588Z,100559.63
2023-03-17T04:59:05.886Z,100564.81
2023-03-17T05:01:33.718Z,100549.66
2023-03-17T05:04:01.787Z,100525.91
2023-03-17T05:06:29.711Z,100558.91
2023-03-17T05:08:57.518Z,100555.44
2023-03-17T05:11:25.848Z,100552.19
2023-03-17T05:13:53.762Z,100405.16
2023-03-17T05:16:22.145Z,100545.94
2023-03-17T05:18:50.282Z,100544.38
2023-03-17T05:21:17.964Z,100516.28
2023-03-17T05:23:45.735Z,100531.91
2023-03-17T05:26:13.555Z,100461.00
2023-03-17T05:28:41.544Z,100478.88
2023-03-17T05:31:11.199Z,100561.63
2023-03-17T05:33:39.242Z,100557.03
2023-03-17T05:36:08.177Z,100526.47
2023-03-17T05:38:36.178Z,100551.38
2023-03-17T05:41:04.458Z,100546.22
2023-03-17T05:43:32.764Z,100450.84
2023-03-17T05:46:00.629Z,100519.75
2023-03-17T05:48:28.484Z,100527.56
2023-03-17T05:50:56.279Z,100520.00
2023-03-17T05:53:24.210Z,100525.66
2023-03-17T05:55:53.505Z,100326.34
2023-03-17T05:58:22.511Z,100557.84
2023-03-17T06:00:50.427Z,100506.47
2023-03-17T06:03:18.461Z,100550.78
2023-03-17T06:05:46.618Z,100529.44
2023-03-17T06:08:15.212Z,100552.94
2023-03-17T06:10:43.332Z,100511.88
2023-03-17T06:13:12.017Z,100527.75
2023-03-17T06:15:40.053Z,100510.75
2023-03-17T06:18:08.094Z,100533.53
2023-03-17T06:20:36.881Z,100508.66
2023-03-17T06:23:06.074Z,100555.09
2023-03-17T06:25:35.168Z,100508.31
2023-03-17T06:28:04.285Z,100475.25
2023-03-17T06:30:35.132Z,100547.13
2023-03-17T06:33:04.044Z,100555.31
2023-03-17T06:35:33.540Z,100530.19
2023-03-17T06:38:02.606Z,100496.16
2023-03-17T06:40:30.943Z,100469.81
2023-03-17T06:43:01.291Z,100485.81
2023-03-17T06:45:29.626Z,100508.06
2023-03-17T06:47:58.059Z,100513.69
2023-03-17T06:50:26.032Z,100549.13
2023-03-17T06:52:53.860Z,100525.31
2023-03-17T06:55:22.888Z,100564.75
2023-03-17T06:57:51.467Z,100575.63
2023-03-17T07:00:21.371Z,100573.50
2023-03-17T07:02:49.779Z,100532.22
2023-03-17T07:05:18.105Z,100566.19
2023-03-17T07:07:46.250Z,100552.03
2023-03-17T07:10:15.885Z,100558.66
2023-03-17T07:12:44.953Z,100575.91
2023-03-17T07:15:12.982Z,100575.91
2023-03-17T07:17:41.064Z,100586.59
2023-03-17T07:20:14.165Z,100562.84
2023-03-17T07:22:42.537Z,100588.78
2023-03-17T07:25:11.176Z,100540.50
2023-03-17T07:27:40.066Z,100571.75
2023-03-17T07:30:09.117Z,100607.47
2023-03-17T07:32:37.960Z,100605.81
2023-03-17T07:35:07.737Z,100616.13
2023-03-17T07:37:35.667Z,100470.72
2023-03-17T07:40:04.586Z,100567.94
2023-03-17T07:42:32.564Z,100566.94
2023-03-17T07:45:00.737Z,100614.78
2023-03-17T07:47:28.607Z,100607.19
2023-03-17T07:49:56.740Z,100608.47
2023-03-17T07:52:24.637Z,100573.84
2023-03-17T07:54:54.781Z,100531.09
2023-03-17T07:57:22.722Z,100578.84
2023-03-17T07:59:51.006Z,100595.38
2023-03-17T08:02:19.712Z,100588.66
2023-03-17T08:04:47.864Z,100600.88
2023-03-17T08:07:17.189Z,100581.72
2023-03-17T08:09:45.258Z,100505.22
2023-03-17T08:12:13.753Z,100588.78
2023-03-17T08:14:41.690Z,100620.63
2023-03-17T08:17:09.515Z,100628.47
2023-03-17T08:19:37.583Z,100632.00
2023-03-17T08:22:06.557Z,100610.56
2023-03-17T08:24:34.893Z,100577.88
2023-03-17T08:27:04.246Z,100609.22
2023-03-17T08:29:31.907Z,100584.84
2023-03-17T08:31:59.712Z,100605.34
2023-03-17T08:34:29.428Z,100603.97
2023-03-17T08:36:57.512Z,100616.94
2023-03-17T08:39:25.709Z,100627.69
2023-03-17T08:41:53.806Z,100635.59
2023-03-17T08:44:22.180Z,100629.53
2023-03-17T08:46:50.729Z,100635.00
2023-03-17T08:49:19.020Z,100609.56
2023-03-17T08:51:47.592Z,100625.91
2023-03-17T08:54:15.610Z,100630.28
2023-03-17T08:56:43.848Z,100605.31
2023-03-17T08:59:16.500Z,100566.72
2023-03-17T09:01:47.390Z,100610.91
2023-03-17T09:04:15.891Z,100613.13
2023-03-17T09:07:01.824Z,100553.81
2023-03-17T09:09:31.363Z,100621.16
2023-03-17T09:11:59.602Z,100635.34
2023-03-17T09:14:28.409Z,100621.31
2023-03-17T09:16:57.544Z,100495.03
2023-03-17T09:19:25.632Z,100586.91
2023-03-17T09:21:56.050Z,100630.06
2023-03-17T09:24:23.980Z,100624.63
2023-03-17T09:26:53.348Z,100622.97
2023-03-17T09:29:21.663Z,100636.34
2023-03-17T09:31:49.434Z,100632.25
2023-03-17T09:34:17.277Z,100640.75
2023-03-17T09:36:45.067Z,100635.53
2023-03-17T09:39:12.903Z,100628.22
2023-03-17T09:42:02.465Z,100652.91
2023-03-17T09:44:42.254Z,100651.78
2023-03-17T09:47:10.480Z,100651.50
2023-03-17T09:49:45.154Z,100621.16
2023-03-17T09:52:18.878Z,100630.78
2023-03-17T09:54:49.711Z,100600.53
2023-03-17T09:57:36.464Z,100610.75
2023-03-17T10:00:19.482Z,100624.03
2023-03-17T10:02:47.418Z,100626.16
2023-03-17T10:05:20.765Z,100637.78
2023-03-17T10:08:05.353Z,100643.47
2023-03-17T10:11:09.010Z,100643.25
2023-03-17T10:14:02.073Z,100648.34
2023-03-17T10:17:05.911Z,100628.44
2023-03-17T10:19:46.301Z,100643.47
2023-03-17T10:22:25.601Z,100647.38
2023-03-17T10:24:58.061Z,100644.94
2023-03-17T10:27:28.202Z,100625.78
2023-03-17T10:29:57.204Z,100642.00
2023-03-17T10:32:26.996Z,100623.13
2023-03-17T10:34:55.985Z,100597.25
2023-03-17T10:37:24.926Z,100623.72
2023-03-17T10:39:58.756Z,100618.03
2023-03-17T10:42:32.432Z,100607.50
2023-03-17T10:45:31.081Z,100627.56
2023-03-17T10:48:01.809Z,100621.06
2023-03-17T10:50:34.131Z,100617.84
2023-03-17T10:53:08.201Z,100629.53
2023-03-17T10:55:39.107Z,100624.31
2023-03-17T10:58:24.478Z,100614.28
2023-03-17T11:01:05.995Z,100549.66
2023-03-17T11:03:40.267Z,100621.00
2023-03-17T11:06:10.893Z,100628.59
2023-03-17T11:08:47.245Z,100593.50
2023-03-17T11:11:30.562Z,100633.72
2023-03-17T11:14:16.231Z,100644.13
2023-03-17T11:17:04.170Z,100637.88
2023-03-17T11:19:47.717Z,100632.41
2023-03-17T11:22:32.129Z,100627.47
2023-03-17T11:25:16.042Z,100612.88
2023-03-17T11:28:02.700Z,100638.06
2023-03-17T11:30:30.903Z,100638.69
2023-03-17T11:33:10.996Z,100631.59
2023-03-17T11:35:45.940Z,100634.84
2023-03-17T11:38:19.877Z,100630.19
2023-03-17T11:41:23.153Z,100630.75
2023-03-17T11:44:03.209Z,100623.38
2023-03-17T11:46:46.559Z,100635.88
2023-03-17T11:49:20.576Z,100636.41
2023-03-17T11:52:03.512Z,100638.81
2023-03-17T11:55:00.693Z,100620.03
2023-03-17T11:57:37.596Z,100550.66
2023-03-17T12:00:17.094Z,100603.03
2023-03-17T12:02:53.407Z,100552.50
2023-03-17T12:05:26.327Z,100608.41
2023-03-17T12:07:59.524Z,100602.13
2023-03-17T12:10:45.878Z,100550.53
2023-03-17T12:13:24.276Z,100582.03
2023-03-17T12:16:00.481Z,100584.41
2023-03-17T12:18:33.282Z,100583.81
2023-03-17T12:21:07.961Z,100548.59
2023-03-17T12:24:08.074Z,100573.34
2023-03-17T12:27:05.236Z,100565.22
2023-03-17T12:29:52.713Z,100551.16
2023-03-17T12:32:25.590Z,100552.91
2023-03-17T12:34:58.021Z,100554.03
2023-03-17T12:37:30.312Z,100528.56
2023-03-17T12:40:14.550Z,100533.03
2023-03-17T12:42:54.676Z,100533.03
2023-03-17T12:45:41.163Z,100536.78
2023-03-17T12:48:45.998Z,100533.75
2023-03-17T12:51:13.890Z,100527.44
2023-03-17T12:53:45.314Z,100527.94
2023-03-17T12:56:25.236Z,100535.19
2023-03-17T12:58:59.780Z,100537.13
2023-03-17T13:01:32.533Z,100491.75
2023-03-17T13:04:15.623Z,100513.38
2023-03-17T13:07:06.465Z,100526.81
2023-03-17T13:09:37.512Z,100531.16
2023-03-17T13:12:07.052Z,100510.66
2023-03-17T13:14:51.894Z,100526.53
2023-03-17T13:17:24.120Z,100514.31
2023-03-17T13:20:15.199Z,100504.50
2023-03-17T13:23:11.324Z,100481.28
2023-03-17T13:25:43.255Z,100479.06
2023-03-17T13:28:11.945Z,100475.22
2023-03-17T13:30:39.773Z,100477.94
2023-03-17T13:33:15.742Z,100473.59
2023-03-17T13:35:46.148Z,100457.06
2023-03-17T13:38:26.652Z,100443.72
2023-03-17T13:41:16.048Z,100417.66
2023-03-17T13:44:04.031Z,100406.03
2023-03-17T13:46:40.389Z,100430.50
2023-03-17T13:49:26.813Z,100434.06
2023-03-17T13:51:59.798Z,100445.22
2023-03-17T13:54:28.459Z,100446.06
2023-03-17T13:57:38.376Z,100435.66
2023-03-17T14:00:21.909Z,100433.75
2023-03-17T14:02:53.958Z,100446.16
2023-03-17T14:05:29.282Z,100462.94
2023-03-17T14:08:02.020Z,100442.00
2023-03-17T14:10:33.352Z,100447.44
2023-03-17T14:13:06.924Z,100414.03
2023-03-17T14:15:48.389Z,100482.81
2023-03-17T14:18:19.371Z,100478.47
2023-03-17T14:20:55.401Z,100434.88
2023-03-17T14:23:24.198Z,100464.88
2023-03-17T14:25:54.949Z,100471.06
2023-03-17T14:28:32.992Z,100471.88
2023-03-17T14:31:07.171Z,100442.69
2023-03-17T14:33:41.169Z,100461.41
2023-03-17T14:36:14.359Z,100435.81
2023-03-17T14:38:54.755Z,100464.84
2023-03-17T14:41:26.151Z,100435.59
2023-03-17T14:43:58.446Z,100450.06
2023-03-17T14:46:33.494Z,100468.47
2023-03-17T14:49:14.673Z,100467.56
2023-03-17T14:51:43.427Z,100398.53
2023-03-17T14:54:25.637Z,100458.84
2023-03-17T14:57:02.319Z,100463.19
2023-03-17T14:59:34.626Z,100451.09
2023-03-17T15:02:24.865Z,100456.81
2023-03-17T15:05:23.562Z,100394.78
2023-03-17T15:07:53.039Z,100446.53
2023-03-17T15:10:25.069Z,100464.50
2023-03-17T15:13:06.470Z,100448.34
2023-03-17T15:15:38.175Z,100427.13
2023-03-17T15:18:20.470Z,100448.66
2023-03-17T15:20:48.304Z,100447.56
2023-03-17T15:23:22.553Z,100429.69
2023-03-17T15:25:56.555Z,100408.75
2023-03-17T15:28:31.663Z,100428.47
2023-03-17T15:31:12.177Z,100435.53
2023-03-17T15:33:41.494Z,100428.94
2023-03-17T15:36:29.321Z,100373.28
2023-03-17T15:38:59.514Z,100428.25
2023-03-17T15:41:27.383Z,100423.91
2023-03-17T15:43:55.207Z,100426.13
2023-03-17T15:46:33.812Z,100423.91
2023-03-17T15:49:02.385Z,100437.25
2023-03-17T15:51:31.871Z,100437.25
2023-03-17T15:53:59.738Z,100442.69
2023-03-17T15:56:28.879Z,100412.97
2023-03-17T15:58:56.719Z,100434.81
2023-03-17T16:01:27.660Z,100393.47
2023-03-17T16:03:55.779Z,100416.03
2023-03-17T16:06:24.557Z,100417.03
2023-03-17T16:08:52.501Z,100415.44
2023-03-17T16:11:28.222Z,100413.00
2023-03-17T16:14:01.235Z,100415.44
2023-03-17T16:16:43.732Z,100409.97
2023-03-17T16:19:23.679Z,100409.97
2023-03-17T16:21:52.079Z,100373.81
2023-03-17T16:24:22.947Z,100375.50
2023-03-17T16:26:51.566Z,100412.22
2023-03-17T16:29:21.642Z,100414.13
2023-03-17T16:31:51.226Z,100409.28
2023-03-17T16:34:21.917Z,100404.41
2023-03-17T16:36:50.745Z,100336.66
2023-03-17T16:39:25.111Z,100421.88
2023-03-17T16:41:55.622Z,100410.66
2023-03-17T16:44:26.558Z,100385.41
2023-03-17T16:46:54.429Z,100378.63
2023-03-17T16:49:23.271Z,100372.97
2023-03-17T16:51:51.367Z,100399.97
2023-03-17T16:54:19.328Z,100380.03
2023-03-17T16:56:47.681Z,100412.91
2023-03-17T16:59:21.572Z,100373.84
2023-03-17T17:01:49.874Z,100419.16
2023-03-17T17:04:17.770Z,100395.41
2023-03-17T17:06:45.771Z,100379.31
2023-03-17T17:09:13.542Z,100432.28
2023-03-17T17:11:41.382Z,100401.03
2023-03-17T17:14:09.037Z,100343.00
2023-03-17T17:16:40.032Z,100424.09
2023-03-17T17:19:15.968Z,100426.03
2023-03-17T17:21:44.801Z,100348.06
2023-03-17T17:24:16.424Z,100420.88
2023-03-17T17:26:44.518Z,100375.78
2023-03-17T17:29:12.464Z,100421.97
2023-03-17T17:31:41.084Z,100393.53
2023-03-17T17:34:13.272Z,100423.44
2023-03-17T17:36:41.511Z,100403.25
2023-03-17T17:39:11.113Z,100386.78
2023-03-17T17:41:38.914Z,100406.47
2023-03-17T17:44:06.901Z,100389.00
2023-03-17T17:46:35.058Z,100401.63
2023-03-17T17:49:03.055Z,100403.25
2023-03-17T17:51:32.841Z,100436.63
2023-03-17T17:54:00.907Z,100425.09
2023-03-17T17:56:29.092Z,100361.22
2023-03-17T17:58:56.847Z,100377.63
2023-03-17T18:01:24.642Z,100419.66
2023-03-17T18:03:54.117Z,100427.34
2023-03-17T18:06:22.190Z,100411.59
2023-03-17T18:08:50.496Z,100347.41
2023-03-17T18:11:18.736Z,100413.81
2023-03-17T18:13:51.593Z,100403.19
2023-03-17T18:16:19.975Z,100402.19
2023-03-17T18:18:47.903Z,100396.50
2023-03-17T18:21:16.215Z,100405.59
2023-03-17T18:23:47.409Z,100420.19
2023-03-17T18:26:17.726Z,100427.53
2023-03-17T18:28:45.982Z,100415.63
2023-03-17T18:31:18.758Z,100389.44
2023-03-17T18:33:49.548Z,100413.69
2023-03-17T18:36:19.068Z,100372.66
2023-03-17T18:38:46.964Z,100418.03
2023-03-17T18:41:15.450Z,100417.84
2023-03-17T18:43:45.000Z,100409.97
2023-03-17T18:46:16.687Z,100363.13
2023-03-17T18:48:44.605Z,100405.78
2023-03-17T18:51:12.704Z,100426.22
2023-03-17T18:53:41.884Z,100425.00
2023-03-17T18:56:09.981Z,100403.25
2023-03-17T18:58:37.970Z,100446.91
2023-03-17T19:01:06.376Z,100432.28
2023-03-17T19:03:34.566Z,100428.63
2023-03-17T19:06:16.048Z,100438.41
2023-03-17T19:08:44.353Z,100436.00
2023-03-17T19:11:14.276Z,100431.44
2023-03-17T19:13:42.444Z,100455.47
2023-03-17T19:16:11.318Z,100457.19
2023-03-17T19:18:42.466Z,100406.66
2023-03-17T19:21:11.627Z,100455.69
2023-03-17T19:23:41.668Z,100449.94
2023-03-17T19:26:10.578Z,100454.28
2023-03-17T19:28:38.436Z,100454.50
2023-03-17T19:31:06.623Z,100459.44
2023-03-17T19:33:34.757Z,100416.06
2023-03-17T19:36:11.709Z,100458.44
2023-03-17T19:38:39.745Z,100456.81
2023-03-17T19:41:07.540Z,100467.28
2023-03-17T19:43:40.884Z,100467.59
2023-03-17T19:46:11.566Z,100462.41
2023-03-17T19:48:40.582Z,100461.31
2023-03-17T19:51:08.340Z,100374.41
2023-03-17T19:53:37.589Z,100455.34
2023-03-17T19:56:06.720Z,100427.34
2023-03-17T19:58:34.865Z,100466.03
2023-03-17T20:01:07.032Z,100414.00
2023-03-17T20:03:35.736Z,100471.78
2023-03-17T20:06:06.571Z,100452.16
2023-03-17T20:08:36.154Z,100424.88
2023-03-17T20:11:06.115Z,100445.97
2023-03-17T20:13:38.049Z,100461.03
2023-03-17T20:16:07.562Z,100480.28
2023-03-17T20:18:37.181Z,100457.91
2023-03-17T20:21:07.212Z,100420.72
2023-03-17T20:23:36.886Z,100449.88
2023-03-17T20:26:04.955Z,100449.81
2023-03-17T20:28:32.846Z,100398.47
2023-03-17T20:31:03.161Z,100377.75
2023-03-17T20:33:34.206Z,100480.53
2023-03-17T20:36:03.411Z,100464.72
2023-03-17T20:38:33.766Z,100476.81
2023-03-17T20:41:13.932Z,100458.72
2023-03-17T20:43:42.249Z,100461.78
2023-03-17T20:46:17.343Z,100470.75
2023-03-17T20:48:49.076Z,100471.88
2023-03-17T20:51:18.312Z,100471.88
2023-03-17T20:53:48.068Z,100412.97
2023-03-17T20:56:19.204Z,100440.59
2023-03-17T20:58:48.664Z,100443.97
2023-03-17T21:01:20.900Z,100459.06
2023-03-17T21:03:50.249Z,100436.78
2023-03-17T21:06:20.183Z,100463.19
2023-03-17T21:08:48.032Z,100445.97
2023-03-17T21:11:20.113Z,100455.81
2023-03-17T21:13:48.683Z,100247.94
2023-03-17T21:16:19.894Z,100452.34
2023-03-17T21:18:48.726Z,100453.47
2023-03-17T21:21:17.508Z,100435.56
2023-03-17T21:23:47.647Z,100406.34
2023-03-17T21:26:16.080Z,100409.66
2023-03-17T21:28:44.604Z,100435.44
2023-03-17T21:31:13.589Z,100429.38
2023-03-17T21:33:42.591Z,100428.34
2023-03-17T21:36:11.281Z,100377.72
2023-03-17T21:38:40.195Z,100431.00
2023-03-17T21:41:23.581Z,100421.22
2023-03-17T21:43:51.413Z,100414.94
2023-03-17T21:46:20.599Z,100427.78
2023-03-17T21:48:49.065Z,100335.13
2023-03-17T21:51:16.918Z,100357.59
2023-03-17T21:53:44.969Z,100428.28
2023-03-17T21:56:13.849Z,100428.28
2023-03-17T21:58:41.943Z,100431.81
2023-03-17T22:01:10.346Z,100393.31
2023-03-17T22:03:39.733Z,100400.31
2023-03-17T22:06:08.310Z,100436.75
2023-03-17T22:08:36.244Z,100361.09
2023-03-17T22:11:09.040Z,100443.59
2023-03-17T22:13:37.327Z,100448.03
2023-03-17T22:16:05.578Z,100432.19
2023-03-17T22:18:33.992Z,100303.50
2023-03-17T22:21:01.957Z,100360.75
2023-03-17T22:23:30.492Z,100423.56
2023-03-17T22:25:58.468Z,100429.84
2023-03-17T22:28:26.816Z,100419.78
2023-03-17T22:30:56.354Z,100429.47
2023-03-17T22:33:27.028Z,100415.50
2023-03-17T22:35:55.024Z,100431.75
2023-03-17T22:38:24.824Z,100358.31
2023-03-17T22:41:05.441Z,100227.59
2023-03-17T22:43:37.388Z,100399.81
2023-03-17T22:46:06.073Z,100412.28
2023-03-17T22:48:36.120Z,100415.94
2023-03-17T22:51:06.229Z,100418.97
2023-03-17T22:53:35.346Z,100414.31
2023-03-17T22:56:04.364Z,100373.25
2023-03-17T22:58:32.568Z,100389.78
2023-03-17T23:01:01.405Z,100400.53
2023-03-17T23:03:32.045Z,100395.41
2023-03-17T23:06:02.526Z,100399.72
2023-03-17T23:08:32.326Z,100405.19
2023-03-17T23:11:04.702Z,100403.56
2023-03-17T23:13:32.692Z,100359.38
2023-03-17T23:16:00.426Z,100329.06
2023-03-17T23:18:29.066Z,100399.19
2023-03-17T23:21:00.345Z,100391.31
2023-03-17T23:23:29.032Z,100400.31
2023-03-17T23:25:56.811Z,100389.22
2023-03-17T23:28:25.304Z,100390.47
2023-03-17T23:30:54.326Z,100385.03
2023-03-17T23:33:24.172Z,100385.31
2023-03-17T23:35:52.962Z,100391.13
2023-03-17T23:38:22.026Z,100331.16
2023-03-17T23:40:51.122Z,100382.34
2023-03-17T23:43:19.634Z,100332.50
2023-03-17T23:45:52.776Z,100388.41
2023-03-17T23:48:21.771Z,100317.66
2023-03-17T23:50:53.034Z,100379.00
2023-03-17T23:53:23.494Z,100370.25
2023-03-17T23:55:52.960Z,100340.16
2023-03-17T23:58:22.153Z,100329.94
